This is the latest recevied weather packets stored in our database for station/object N4OGP-WX. If no packets are shown the sender has not sent any weather packets the latest 10 day(s).
| Time | Temp. | Humidity | Pressure | Rain* | Wind** | Luminosity | Snow |
|---|---|---|---|---|---|---|---|
| 1777556180 | 23.89° C | 42% | 1020.4 hPa | 0 mm | - | - | - |
| 1777556120 | 21.11° C | 85% | 1010.6 hPa | 0 mm | - | - | - |
| 1777556060 | 21.11° C | 85% | 1010.6 hPa | 0 mm | - | - | - |
| 1777556000 | 23.89° C | 42% | 1020.4 hPa | 0 mm | - | - | - |
| 1777555940 | 21.11° C | 85% | 1010.6 hPa | 0 mm | - | - | - |
| 1777555880 | 23.89° C | 42% | 1020.4 hPa | 0 mm | - | - | - |
| 1777555820 | 21.11° C | 85% | 1010.5 hPa | 0 mm | - | - | - |
| 1777555730 | 21.11° C | 85% | 1010.6 hPa | 0 mm | - | - | - |
| 1777555640 | 23.89° C | 42% | 1020.4 hPa | 0 mm | - | - | - |
| 1777555580 | 21.11° C | 85% | 1010.6 hPa | 0 mm | - | - | - |
| 1777555520 | 21.11° C | 85% | 1010.6 hPa | 0 mm | - | - | - |
| 1777555460 | 21.11° C | 86% | 1010.6 hPa | 0 mm | - | - | - |
| 1777555400 | 21.11° C | 85% | 1010.5 hPa | 0 mm | - | - | - |
| 1777555340 | 23.89° C | 42% | 1020.4 hPa | 0 mm | - | - | - |
| 1777555280 | 23.89° C | 42% | 1020.4 hPa | 0 mm | - | - | - |
| 1777555220 | 21.11° C | 85% | 1010.5 hPa | 0 mm | - | - | - |
| 1777555160 | 21.11° C | 85% | 1010.5 hPa | 0 mm | - | - | - |
| 1777555100 | 23.89° C | 42% | 1020.4 hPa | 0 mm | - | - | - |
| 1777555040 | 21.11° C | 86% | 1010.4 hPa | 0 mm | - | - | - |
| 1777554980 | 23.89° C | 42% | 1020.4 hPa | 0 mm | - | - | - |
| 1777554920 | 23.89° C | 42% | 1020.4 hPa | 0 mm | - | - | - |
| 1777554830 | 23.89° C | 42% | 1020.4 hPa | 0 mm | - | - | - |
| 1777554770 | 23.89° C | 42% | 1020.4 hPa | 0 mm | - | - | - |
| 1777554710 | 23.89° C | 42% | 1020.4 hPa | 0 mm | - | - | - |
| 1777554650 | 23.89° C | 42% | 1020.4 hPa | 0 mm | - | - | - |
* Rain latest hour (hover to see other rain measurements)
** Current wind speed in m/s (hover to see current wind gust speed)